Time;durP1;ratioP1;P1;durP2;ratioP2;P2;SDS_P1;SDS_P2;PMS_P1;PMS_P2;Temp;Humidity;BMP_temperature;BMP_pressure;BME280_temperature;BME280_humidity;BME280_pressure;Samples;Min_cycle;Max_cycle;Signal;HPM_P1;HPM_P2
2021/09/06 00:01:19;;;;;;;3.50;2.47;;;8.10;99.90;;;;;;5230526;28;20263;-70
2021/09/06 00:03:53;;;;;;;5.33;2.80;;;8.10;99.90;;;;;;5230282;28;20205;-67
2021/09/06 00:06:25;;;;;;;6.67;3.20;;;8.10;99.90;;;;;;5230517;28;20266;-67
2021/09/06 00:08:58;;;;;;;5.40;3.60;;;8.10;99.90;;;;;;5231799;28;20349;-68
2021/09/06 00:11:32;;;;;;;5.80;3.47;;;8.00;99.90;;;;;;5230058;28;20209;-68
2021/09/06 00:14:06;;;;;;;7.93;3.87;;;8.00;99.90;;;;;;5230665;28;20205;-69
2021/09/06 00:16:39;;;;;;;8.57;3.60;;;8.00;99.90;;;;;;5231104;28;20235;-70
2021/09/06 00:19:11;;;;;;;6.37;3.63;;;7.90;99.90;;;;;;5231293;28;20209;-70
2021/09/06 00:21:43;;;;;;;5.57;3.57;;;7.90;99.90;;;;;;5231391;28;20212;-66
2021/09/06 00:24:15;;;;;;;4.77;3.53;;;7.90;99.90;;;;;;5212925;28;20205;-71
2021/09/06 00:26:47;;;;;;;5.67;3.60;;;7.90;99.90;;;;;;5230901;28;20216;-70
2021/09/06 00:29:20;;;;;;;6.87;3.47;;;7.80;99.90;;;;;;5230863;28;20558;-70
2021/09/06 00:31:52;;;;;;;8.40;3.80;;;7.80;99.90;;;;;;5229999;28;20201;-67
2021/09/06 00:34:24;;;;;;;6.80;3.50;;;7.80;99.90;;;;;;5230060;28;20629;-70
2021/09/06 00:36:56;;;;;;;7.83;4.10;;;7.70;99.90;;;;;;5228869;28;20210;-67
2021/09/06 00:39:28;;;;;;;6.50;4.07;;;7.70;99.90;;;;;;5229053;28;20221;-70
2021/09/06 00:42:02;;;;;;;7.17;3.93;;;7.70;99.90;;;;;;5230248;28;20216;-68
2021/09/06 00:44:34;;;;;;;6.87;3.70;;;7.60;99.90;;;;;;5229021;28;20237;-69
2021/09/06 00:47:08;;;;;;;6.33;3.97;;;7.60;99.90;;;;;;5229945;28;20205;-69
2021/09/06 00:49:41;;;;;;;6.90;4.20;;;7.60;99.90;;;;;;5229869;28;20289;-67
2021/09/06 00:52:14;;;;;;;6.37;3.90;;;7.60;99.90;;;;;;5229420;28;20241;-67
2021/09/06 00:54:46;;;;;;;5.77;3.63;;;7.50;99.90;;;;;;5229458;28;20209;-69
2021/09/06 00:57:18;;;;;;;7.47;4.37;;;7.50;99.90;;;;;;5229841;28;20560;-68
2021/09/06 00:59:50;;;;;;;8.07;3.60;;;7.50;99.90;;;;;;5228435;28;20248;-68
2021/09/06 01:02:22;;;;;;;5.43;3.80;;;7.40;99.90;;;;;;5229263;28;20229;-66
2021/09/06 01:04:55;;;;;;;6.20;3.90;;;7.40;99.90;;;;;;5229469;28;20212;-69
2021/09/06 01:07:27;;;;;;;7.00;3.90;;;7.40;99.90;;;;;;5229912;28;20531;-71
2021/09/06 01:10:08;;;;;;;7.30;4.07;;;7.30;99.90;;;;;;5228366;28;20283;-68
2021/09/06 01:12:42;;;;;;;7.10;3.70;;;7.30;99.90;;;;;;5229753;28;20243;-69
2021/09/06 01:15:15;;;;;;;7.03;3.80;;;7.30;99.90;;;;;;5229984;28;20205;-68
2021/09/06 01:17:48;;;;;;;6.67;3.93;;;7.20;99.90;;;;;;5228540;28;20237;-69
2021/09/06 01:20:20;;;;;;;6.87;4.27;;;7.20;99.90;;;;;;5229407;28;20239;-68
2021/09/06 01:22:52;;;;;;;6.50;4.00;;;7.20;99.90;;;;;;5228396;28;20201;-69
2021/09/06 01:25:24;;;;;;;8.13;4.50;;;7.20;99.90;;;;;;5261818;28;20209;-70
2021/09/06 01:27:56;;;;;;;7.63;4.40;;;7.10;99.90;;;;;;5229063;28;20197;-67
2021/09/06 01:30:28;;;;;;;7.37;4.47;;;7.10;99.90;;;;;;5244628;28;20220;-69
2021/09/06 01:33:02;;;;;;;9.50;4.83;;;7.10;99.90;;;;;;5228917;28;20234;-69
2021/09/06 01:35:34;;;;;;;8.37;4.97;;;7.00;99.90;;;;;;5228072;28;20205;-69
2021/09/06 01:38:09;;;;;;;8.60;4.27;;;7.00;99.90;;;;;;5228697;28;20233;-70
2021/09/06 01:40:41;;;;;;;8.43;5.17;;;7.00;99.90;;;;;;5229861;28;20236;-68
2021/09/06 01:43:13;;;;;;;7.23;4.50;;;6.90;99.90;;;;;;5228820;28;20233;-71
2021/09/06 01:45:45;;;;;;;8.47;4.97;;;6.90;99.90;;;;;;5229082;28;20202;-70
2021/09/06 01:48:20;;;;;;;9.90;5.10;;;6.90;99.90;;;;;;5228222;28;20656;-70
2021/09/06 01:50:52;;;;;;;9.17;4.60;;;6.90;99.90;;;;;;5229284;28;20205;-68
2021/09/06 01:53:26;;;;;;;7.00;4.40;;;6.80;99.90;;;;;;5228897;28;20256;-69
2021/09/06 01:55:58;;;;;;;8.27;4.90;;;6.80;99.90;;;;;;5228105;28;20208;-69
2021/09/06 01:58:30;;;;;;;7.67;4.53;;;6.80;99.90;;;;;;5229008;28;20690;-69
2021/09/06 02:01:02;;;;;;;7.83;4.27;;;6.80;99.90;;;;;;5244123;28;20251;-69
2021/09/06 02:03:35;;;;;;;6.87;4.10;;;6.80;99.90;;;;;;5227602;28;20269;-69
2021/09/06 02:06:08;;;;;;;10.63;4.47;;;6.80;99.90;;;;;;5227919;28;20236;-70
2021/09/06 02:08:40;;;;;;;8.57;4.77;;;6.80;99.90;;;;;;5230042;28;20213;-69
2021/09/06 02:11:12;;;;;;;10.30;5.17;;;6.70;99.90;;;;;;5229353;28;20211;-69
2021/09/06 02:13:44;;;;;;;6.10;4.30;;;6.70;99.90;;;;;;5229811;28;20233;-71
2021/09/06 02:16:16;;;;;;;6.87;4.10;;;6.70;99.90;;;;;;5244742;28;20292;-71
2021/09/06 02:18:53;;;;;;;7.23;4.30;;;6.70;99.90;;;;;;5228247;28;20653;-69
2021/09/06 02:21:25;;;;;;;6.80;4.17;;;6.60;99.90;;;;;;5227548;28;20225;-69
2021/09/06 02:24:01;;;;;;;8.70;4.50;;;6.60;99.90;;;;;;5228712;28;20263;-70
2021/09/06 02:26:36;;;;;;;7.83;3.93;;;6.60;99.90;;;;;;5227616;28;20189;-68
2021/09/06 02:29:11;;;;;;;8.23;4.13;;;6.60;99.90;;;;;;5228878;28;20225;-68
2021/09/06 02:31:44;;;;;;;6.60;3.87;;;6.60;99.90;;;;;;5228451;28;20209;-69
2021/09/06 02:34:18;;;;;;;6.63;4.03;;;6.50;99.90;;;;;;5228640;28;20243;-71
2021/09/06 02:36:50;;;;;;;7.60;3.90;;;6.50;99.90;;;;;;5227338;28;20735;-70
2021/09/06 02:39:22;;;;;;;7.10;3.90;;;6.50;99.90;;;;;;5227345;28;20737;-69
2021/09/06 02:41:58;;;;;;;7.73;4.23;;;6.50;99.90;;;;;;5228043;28;20225;-68
2021/09/06 02:44:31;;;;;;;7.03;3.93;;;6.50;99.90;;;;;;5230025;28;20514;-67
2021/09/06 02:47:03;;;;;;;8.40;3.73;;;6.50;99.90;;;;;;5231383;28;20533;-66
2021/09/06 02:49:35;;;;;;;6.00;3.90;;;6.50;99.90;;;;;;5231327;28;20229;-69
2021/09/06 02:52:08;;;;;;;5.70;3.63;;;6.50;99.90;;;;;;5264954;28;20206;-68
2021/09/06 02:54:40;;;;;;;7.63;4.10;;;6.50;99.90;;;;;;5233331;28;20225;-71
2021/09/06 02:57:12;;;;;;;6.80;4.20;;;6.50;99.90;;;;;;5215577;28;20654;-69
2021/09/06 02:59:44;;;;;;;5.33;3.23;;;6.40;99.90;;;;;;5215094;28;20244;-68
2021/09/06 03:02:17;;;;;;;7.60;3.57;;;6.50;99.90;;;;;;5232595;28;20221;-70
2021/09/06 03:04:49;;;;;;;6.07;3.77;;;6.50;99.90;;;;;;5231017;28;20232;-71
2021/09/06 03:07:21;;;;;;;5.73;3.43;;;6.50;99.90;;;;;;5230927;28;20207;-69
2021/09/06 03:09:53;;;;;;;9.37;4.00;;;6.50;99.90;;;;;;5230622;28;20230;-71
2021/09/06 03:12:26;;;;;;;7.57;3.73;;;6.50;99.90;;;;;;5232415;28;20252;-70
2021/09/06 03:14:58;;;;;;;8.77;4.10;;;6.50;99.90;;;;;;5230718;28;20260;-70
2021/09/06 03:17:32;;;;;;;6.37;3.67;;;6.50;99.90;;;;;;5230679;28;20216;-71
2021/09/06 03:20:05;;;;;;;7.30;4.13;;;6.50;99.90;;;;;;5230496;28;20228;-68
2021/09/06 03:22:37;;;;;;;7.07;4.70;;;6.50;99.90;;;;;;5230595;28;20213;-69
2021/09/06 03:25:10;;;;;;;9.17;4.30;;;6.50;99.90;;;;;;5232008;28;20312;-70
2021/09/06 03:27:41;;;;;;;6.73;4.03;;;6.50;99.90;;;;;;5231473;28;20209;-70
2021/09/06 03:30:14;;;;;;;6.10;3.67;;;6.50;99.90;;;;;;5230544;28;20248;-70
2021/09/06 03:32:46;;;;;;;9.30;4.03;;;6.50;99.90;;;;;;5247020;28;20201;-66
2021/09/06 03:35:20;;;;;;;8.37;3.73;;;6.40;99.90;;;;;;5231566;28;20271;-70
2021/09/06 03:37:52;;;;;;;6.93;3.60;;;6.40;99.90;;;;;;5231218;28;20641;-69
2021/09/06 03:40:26;;;;;;;6.10;3.80;;;6.40;99.90;;;;;;5214300;28;20564;-70
2021/09/06 03:43:01;;;;;;;5.47;3.27;;;6.40;99.90;;;;;;5230552;28;20192;-69
2021/09/06 03:45:35;;;;;;;6.93;4.03;;;6.40;99.90;;;;;;5231308;28;20343;-68
2021/09/06 03:48:07;;;;;;;9.07;3.63;;;6.40;99.90;;;;;;5231088;28;20197;-72
2021/09/06 03:50:38;;;;;;;6.50;3.67;;;6.40;99.90;;;;;;5230737;28;20241;-73
2021/09/06 03:53:12;;;;;;;6.03;3.10;;;6.40;99.90;;;;;;5231711;28;20193;-72
2021/09/06 03:55:46;;;;;;;6.53;3.57;;;6.40;99.90;;;;;;5232248;28;20201;-72
2021/09/06 03:58:18;;;;;;;5.77;3.37;;;6.30;99.90;;;;;;5232331;28;20202;-71
2021/09/06 04:00:50;;;;;;;5.90;3.30;;;6.30;99.90;;;;;;5230815;28;20237;-68
2021/09/06 04:03:23;;;;;;;4.43;2.83;;;6.30;99.90;;;;;;5232271;28;20625;-70
2021/09/06 04:05:56;;;;;;;7.53;3.90;;;6.40;99.90;;;;;;5231361;28;20202;-73
2021/09/06 04:08:33;;;;;;;5.87;3.20;;;6.40;99.90;;;;;;5231098;28;20479;-71
2021/09/06 04:11:05;;;;;;;9.53;3.23;;;6.50;99.90;;;;;;5231194;28;20193;-70
2021/09/06 04:13:37;;;;;;;7.57;3.00;;;6.50;99.90;;;;;;5229563;28;20205;-73
2021/09/06 04:16:09;;;;;;;6.00;3.00;;;6.60;99.90;;;;;;5229404;28;20205;-67
2021/09/06 04:18:42;;;;;;;4.80;3.07;;;6.60;99.90;;;;;;5230546;28;20277;-72
2021/09/06 04:21:16;;;;;;;6.10;2.83;;;6.70;99.90;;;;;;5230491;28;20633;-70
2021/09/06 04:23:52;;;;;;;5.30;3.20;;;6.80;99.90;;;;;;5229787;28;20194;-69
2021/09/06 04:26:23;;;;;;;6.33;3.13;;;6.80;99.90;;;;;;5229412;28;20201;-69
2021/09/06 04:28:55;;;;;;;4.40;3.00;;;6.90;99.90;;;;;;5230605;28;20209;-71
2021/09/06 04:31:27;;;;;;;6.10;3.17;;;6.90;99.90;;;;;;5245927;28;20216;-71
2021/09/06 04:34:00;;;;;;;7.97;3.63;;;7.00;99.90;;;;;;5230663;28;20206;-72
2021/09/06 04:36:34;;;;;;;6.20;3.50;;;7.00;99.90;;;;;;5229261;28;20217;-71
2021/09/06 04:39:06;;;;;;;6.53;2.70;;;7.20;99.90;;;;;;5229448;28;20485;-70
2021/09/06 04:41:38;;;;;;;7.47;3.20;;;7.20;99.90;;;;;;5229159;28;20324;-71
2021/09/06 04:44:13;;;;;;;6.00;3.20;;;7.40;99.90;;;;;;5229986;28;20260;-69
2021/09/06 04:46:45;;;;;;;4.93;3.57;;;7.40;99.90;;;;;;5230237;28;20205;-69
2021/09/06 04:49:19;;;;;;;6.77;3.37;;;7.60;99.90;;;;;;5230186;28;20201;-72
2021/09/06 04:51:51;;;;;;;4.87;2.83;;;7.70;99.90;;;;;;5229588;28;20219;-70
2021/09/06 04:54:26;;;;;;;4.87;3.13;;;7.80;99.90;;;;;;5230588;28;20273;-70
2021/09/06 04:56:58;;;;;;;4.47;2.80;;;7.90;99.90;;;;;;5229050;28;20216;-70
2021/09/06 04:59:30;;;;;;;5.10;3.23;;;8.00;99.90;;;;;;5228736;28;20244;-69
2021/09/06 05:02:04;;;;;;;5.20;2.97;;;8.00;99.90;;;;;;5228097;28;20222;-70
2021/09/06 05:04:39;;;;;;;3.87;2.80;;;8.10;99.90;;;;;;5228591;28;20212;-73
2021/09/06 05:07:14;;;;;;;4.50;3.40;;;8.20;99.90;;;;;;5228125;28;20534;-72
2021/09/06 05:09:46;;;;;;;5.77;3.10;;;8.30;99.90;;;;;;5229933;28;20211;-69
2021/09/06 05:12:17;;;;;;;7.80;3.10;;;8.40;99.90;;;;;;5245311;28;20206;-70
2021/09/06 05:14:50;;;;;;;4.47;2.80;;;8.50;99.90;;;;;;5229347;28;20224;-66
2021/09/06 05:17:22;;;;;;;4.70;2.87;;;8.50;99.90;;;;;;5228363;28;20234;-67
2021/09/06 05:19:54;;;;;;;6.20;3.73;;;8.70;99.90;;;;;;5229586;28;20205;-56
2021/09/06 05:22:28;;;;;;;10.33;4.90;;;8.80;99.90;;;;;;5229135;28;20614;-56
2021/09/06 05:25:03;;;;;;;10.10;4.87;;;8.80;99.90;;;;;;5228942;28;20208;-72
2021/09/06 05:27:39;;;;;;;6.63;4.80;;;8.90;99.90;;;;;;5212499;28;20205;-68
2021/09/06 05:30:12;;;;;;;8.63;4.93;;;9.00;99.90;;;;;;5228668;28;20181;-70
2021/09/06 05:32:46;;;;;;;13.07;6.03;;;9.10;99.90;;;;;;5228606;28;20205;-72
2021/09/06 05:35:19;;;;;;;6.77;4.23;;;9.20;99.90;;;;;;5228482;28;20529;-69
2021/09/06 05:37:50;;;;;;;6.07;3.23;;;9.30;99.90;;;;;;5228174;28;20220;-70
2021/09/06 05:40:23;;;;;;;6.60;3.23;;;9.30;99.90;;;;;;5228505;28;20205;-67
2021/09/06 05:42:55;;;;;;;5.77;2.83;;;9.50;99.90;;;;;;5211539;28;20611;-71
2021/09/06 05:45:27;;;;;;;5.60;3.00;;;9.60;99.90;;;;;;5228270;28;20687;-69
2021/09/06 05:47:59;;;;;;;5.17;2.90;;;9.70;99.90;;;;;;5211707;28;20534;-70
2021/09/06 05:50:31;;;;;;;5.80;2.30;;;9.80;99.90;;;;;;5212015;28;20231;-69
2021/09/06 05:53:06;;;;;;;6.27;2.47;;;9.90;99.90;;;;;;5228517;28;20206;-70
2021/09/06 05:55:38;;;;;;;5.63;2.73;;;10.00;99.90;;;;;;5228093;28;20232;-71
2021/09/06 05:58:10;;;;;;;5.87;2.20;;;10.10;99.90;;;;;;5211269;28;20217;-70
2021/09/06 06:00:42;;;;;;;4.83;2.13;;;10.20;99.90;;;;;;5227286;28;20233;-71
2021/09/06 06:03:14;;;;;;;5.27;2.97;;;10.30;99.90;;;;;;5228894;28;20216;-72
2021/09/06 06:05:47;;;;;;;5.57;2.40;;;10.40;99.90;;;;;;5211271;28;20240;-67
2021/09/06 06:08:19;;;;;;;8.17;2.37;;;10.50;99.90;;;;;;5229197;28;20255;-71
2021/09/06 06:10:54;;;;;;;3.33;2.20;;;10.60;99.90;;;;;;5227812;28;20233;-65
2021/09/06 06:13:28;;;;;;;5.80;2.10;;;10.70;99.90;;;;;;5227791;28;20266;-65
2021/09/06 06:16:00;;;;;;;4.47;2.30;;;10.80;99.90;;;;;;5210324;28;20274;-65
2021/09/06 06:18:36;;;;;;;5.60;2.10;;;10.90;99.90;;;;;;5230983;28;20656;-64
2021/09/06 06:21:08;;;;;;;10.70;2.67;;;11.10;99.90;;;;;;5214763;28;20233;-64
2021/09/06 06:23:40;;;;;;;5.17;2.10;;;11.20;99.90;;;;;;5232530;28;20219;-64
2021/09/06 06:26:14;;;;;;;4.87;2.17;;;11.30;99.90;;;;;;5215241;28;20229;-62
2021/09/06 06:28:46;;;;;;;9.13;2.23;;;11.40;99.90;;;;;;5231457;28;20209;-66
2021/09/06 06:31:18;;;;;;;4.83;2.20;;;11.50;99.90;;;;;;5230475;28;20233;-61
2021/09/06 06:33:52;;;;;;;4.97;2.10;;;11.70;99.90;;;;;;5229917;28;20251;-66
2021/09/06 06:36:27;;;;;;;3.97;1.90;;;12.00;99.90;;;;;;5230129;28;20240;-66
2021/09/06 06:39:13;;;;;;;3.93;1.83;;;13.30;99.90;;;;;;5234563;28;20193;-66
2021/09/06 06:41:46;;;;;;;3.43;1.60;;;15.50;99.90;;;;;;5229914;28;20235;-65
2021/09/06 06:44:21;;;;;;;3.50;1.52;;;17.70;99.90;;;;;;5230660;28;20205;-70
2021/09/06 06:46:55;;;;;;;3.10;1.70;;;19.80;99.90;;;;;;5231659;28;20225;-66
2021/09/06 06:49:27;;;;;;;4.32;1.42;;;21.90;99.90;;;;;;5231982;28;20211;-70
2021/09/06 06:51:59;;;;;;;2.58;1.40;;;23.60;99.90;;;;;;5214649;28;20229;-70
2021/09/06 06:54:31;;;;;;;6.25;1.98;;;25.20;99.90;;;;;;5232141;28;20217;-71
2021/09/06 06:57:03;;;;;;;5.20;1.90;;;26.00;96.10;;;;;;5214660;28;20661;-68
2021/09/06 06:59:36;;;;;;;6.05;1.77;;;26.90;93.00;;;;;;5214655;28;20271;-69
2021/09/06 07:02:08;;;;;;;4.65;1.33;;;28.00;90.70;;;;;;5231407;28;20236;-69
2021/09/06 07:04:43;;;;;;;3.72;1.70;;;28.80;85.90;;;;;;5240331;28;20208;-68
2021/09/06 07:07:15;;;;;;;5.10;1.40;;;29.30;80.20;;;;;;5245747;28;20237;-70
2021/09/06 07:09:47;;;;;;;3.03;1.27;;;29.70;77.20;;;;;;5231181;28;20212;-68
2021/09/06 07:12:22;;;;;;;6.07;1.30;;;30.00;74.00;;;;;;5230787;28;20225;-68
2021/09/06 07:15:01;;;;;;;3.03;1.17;;;30.00;71.50;;;;;;5247149;28;20517;-66
2021/09/06 07:17:34;;;;;;;7.72;1.55;;;29.60;72.00;;;;;;5231339;28;20236;-69
2021/09/06 07:20:07;;;;;;;3.70;1.48;;;29.20;70.50;;;;;;5230471;28;20586;-69
2021/09/06 07:22:39;;;;;;;5.03;1.45;;;28.80;70.00;;;;;;5230651;28;20669;-70
2021/09/06 07:25:11;;;;;;;5.60;1.63;;;28.50;70.50;;;;;;5209857;28;20244;-68
2021/09/06 07:27:43;;;;;;;4.13;1.48;;;28.70;69.80;;;;;;5210048;28;20686;-71
2021/09/06 07:30:15;;;;;;;2.72;1.05;;;28.50;69.90;;;;;;5209612;28;20206;-72
2021/09/06 07:32:48;;;;;;;4.28;1.40;;;28.40;70.00;;;;;;5210528;28;20230;-70
2021/09/06 07:35:23;;;;;;;1.92;1.20;;;28.40;68.70;;;;;;5209785;28;20217;-70
2021/09/06 07:37:55;;;;;;;4.50;1.60;;;28.30;69.90;;;;;;5210618;28;20209;-70
2021/09/06 07:40:27;;;;;;;4.93;1.70;;;28.10;68.70;;;;;;5217053;28;20201;-69
2021/09/06 07:43:01;;;;;;;2.95;1.40;;;28.10;69.30;;;;;;5229774;28;20578;-70
2021/09/06 07:45:35;;;;;;;2.10;1.27;;;27.50;69.40;;;;;;5230780;28;20606;-58
2021/09/06 07:48:07;;;;;;;3.15;1.35;;;26.90;70.90;;;;;;5213384;28;20225;-56
2021/09/06 07:50:39;;;;;;;3.28;1.40;;;26.20;71.50;;;;;;5230185;28;20205;-62
2021/09/06 07:53:12;;;;;;;4.13;1.30;;;25.30;73.50;;;;;;5230184;28;20233;-59
2021/09/06 07:55:46;;;;;;;5.32;1.65;;;24.20;76.10;;;;;;5229997;28;20232;-64
2021/09/06 07:58:18;;;;;;;3.42;1.60;;;23.30;78.30;;;;;;5229579;28;20230;-61
2021/09/06 08:00:50;;;;;;;2.38;1.30;;;22.50;80.90;;;;;;5230712;28;20241;-62
2021/09/06 08:03:25;;;;;;;1.52;1.02;;;21.90;82.50;;;;;;5229566;28;20233;-59
2021/09/06 08:06:00;;;;;;;2.67;1.45;;;21.60;83.30;;;;;;5229829;28;20225;-63
2021/09/06 08:08:32;;;;;;;2.08;1.30;;;21.30;84.20;;;;;;5230751;28;20229;-60
2021/09/06 08:11:04;;;;;;;2.63;1.02;;;21.10;86.00;;;;;;5230387;28;20585;-68
2021/09/06 08:13:35;;;;;;;1.98;1.08;;;20.90;87.30;;;;;;5227803;28;20226;-65
2021/09/06 08:16:07;;;;;;;3.35;1.40;;;20.80;87.20;;;;;;5228827;28;20202;-66
2021/09/06 08:18:39;;;;;;;2.53;1.35;;;20.70;87.40;;;;;;5230244;28;20229;-70
2021/09/06 08:21:14;;;;;;;3.22;1.48;;;20.60;86.80;;;;;;5229260;28;20240;-66
2021/09/06 08:23:46;;;;;;;3.95;1.27;;;20.60;87.20;;;;;;5230366;28;20243;-66
2021/09/06 08:26:20;;;;;;;3.83;1.25;;;20.50;87.40;;;;;;5230110;28;20201;-67
2021/09/06 08:28:52;;;;;;;3.28;1.30;;;20.40;88.60;;;;;;5231065;28;20229;-68
2021/09/06 08:31:26;;;;;;;2.35;1.15;;;20.40;88.20;;;;;;5230313;28;20212;-66
2021/09/06 08:33:58;;;;;;;3.33;1.55;;;20.20;86.50;;;;;;5229171;28;20543;-67
2021/09/06 08:36:32;;;;;;;1.70;1.00;;;20.00;88.60;;;;;;5229382;28;20220;-57
2021/09/06 08:39:04;;;;;;;2.35;1.20;;;20.00;87.90;;;;;;5229681;28;20221;-60
2021/09/06 08:41:36;;;;;;;3.40;1.27;;;19.90;88.30;;;;;;5228578;28;20201;-59
2021/09/06 08:44:09;;;;;;;3.33;1.33;;;19.90;89.20;;;;;;5228686;28;20668;-56
2021/09/06 08:46:41;;;;;;;3.20;1.30;;;20.00;89.00;;;;;;5228943;28;20206;-65
2021/09/06 08:49:14;;;;;;;3.50;1.30;;;20.00;88.40;;;;;;5229496;28;20243;-65
2021/09/06 08:51:46;;;;;;;2.65;1.13;;;20.10;89.90;;;;;;5229928;28;20205;-64
2021/09/06 08:54:18;;;;;;;4.88;1.52;;;20.10;89.30;;;;;;5229712;28;20612;-63
2021/09/06 08:56:53;;;;;;;2.15;1.33;;;20.10;90.40;;;;;;5229704;28;20594;-64
2021/09/06 08:59:26;;;;;;;4.10;1.42;;;20.30;90.40;;;;;;5229375;28;20244;-63
2021/09/06 09:01:57;;;;;;;2.45;1.15;;;20.20;89.80;;;;;;5229444;28;20232;-65
2021/09/06 09:04:30;;;;;;;3.70;1.00;;;20.20;89.40;;;;;;5229964;28;20500;-67
2021/09/06 09:07:04;;;;;;;4.90;1.48;;;20.30;89.20;;;;;;5229532;28;20214;-64
2021/09/06 09:09:36;;;;;;;1.95;1.08;;;20.30;88.20;;;;;;5228362;28;20575;-63
2021/09/06 09:12:16;;;;;;;4.55;1.50;;;20.30;86.90;;;;;;5229299;28;20193;-64
2021/09/06 09:15:00;;;;;;;1.85;1.00;;;20.30;88.30;;;;;;5228954;28;20229;-64
2021/09/06 09:17:34;;;;;;;2.00;1.30;;;20.20;88.00;;;;;;5228150;28;20233;-64
2021/09/06 09:20:07;;;;;;;2.53;1.15;;;20.10;87.80;;;;;;5211754;28;20699;-63
2021/09/06 09:22:39;;;;;;;1.83;1.10;;;20.10;90.00;;;;;;5229068;28;20273;-65
2021/09/06 09:25:13;;;;;;;2.70;1.10;;;20.10;89.20;;;;;;5228674;28;20240;-63
2021/09/06 09:27:47;;;;;;;2.53;1.15;;;20.10;89.00;;;;;;5229243;28;20209;-63
2021/09/06 09:30:25;;;;;;;1.75;1.10;;;20.10;89.80;;;;;;5228972;28;20221;-66
2021/09/06 09:33:07;;;;;;;1.92;1.00;;;20.10;89.00;;;;;;5229425;28;20216;-63
2021/09/06 09:35:41;;;;;;;2.92;1.05;;;20.10;89.20;;;;;;5228727;28;20229;-64
2021/09/06 09:38:13;;;;;;;2.95;1.20;;;20.10;88.60;;;;;;5227948;28;20487;-63
2021/09/06 09:40:46;;;;;;;1.70;1.02;;;20.10;88.70;;;;;;5228817;28;20295;-64
2021/09/06 09:43:29;;;;;;;2.67;1.00;;;20.00;86.90;;;;;;5228549;28;20221;-63
2021/09/06 09:46:03;;;;;;;4.50;1.10;;;19.80;86.20;;;;;;5227682;28;20242;-64
2021/09/06 09:48:38;;;;;;;3.45;1.30;;;19.80;88.00;;;;;;5228378;28;20283;-64
2021/09/06 09:51:10;;;;;;;2.67;1.15;;;19.90;89.40;;;;;;5228693;28;20229;-65
2021/09/06 09:53:43;;;;;;;2.30;1.20;;;19.90;89.20;;;;;;5228175;28;20205;-66
2021/09/06 09:56:15;;;;;;;2.30;1.10;;;19.90;88.90;;;;;;5244275;28;20229;-64
2021/09/06 09:58:48;;;;;;;3.22;1.42;;;20.00;87.80;;;;;;5227029;28;20217;-64
2021/09/06 10:01:20;;;;;;;3.92;1.58;;;19.90;89.00;;;;;;5228240;28;20233;-65
2021/09/06 10:03:59;;;;;;;2.13;1.38;;;19.90;90.00;;;;;;5227533;28;20584;-63
2021/09/06 10:06:32;;;;;;;3.58;1.63;;;20.00;89.80;;;;;;5227252;28;20233;-59
2021/09/06 10:09:06;;;;;;;3.70;1.40;;;20.10;89.10;;;;;;5228608;28;20211;-69
2021/09/06 10:11:40;;;;;;;6.10;1.40;;;20.10;87.70;;;;;;5241193;28;20278;-69
2021/09/06 10:14:18;;;;;;;2.15;1.20;;;20.10;88.20;;;;;;5249219;28;20314;-69
2021/09/06 10:17:07;;;;;;;3.70;1.42;;;20.00;88.00;;;;;;5247158;28;20228;-67
2021/09/06 10:19:41;;;;;;;3.75;1.27;;;20.00;87.90;;;;;;5247991;28;20219;-67
2021/09/06 10:22:27;;;;;;;3.55;1.52;;;19.90;89.50;;;;;;5248883;28;20236;-69
2021/09/06 10:25:02;;;;;;;1.58;0.93;;;19.90;88.70;;;;;;5248915;28;20211;-71
2021/09/06 10:27:49;;;;;;;2.50;1.48;;;19.80;88.60;;;;;;5247709;28;20232;-67
2021/09/06 10:30:40;;;;;;;3.40;1.25;;;19.80;89.70;;;;;;5249082;28;20250;-70
2021/09/06 10:33:27;;;;;;;2.03;1.00;;;19.70;88.50;;;;;;5248884;28;20278;-68
2021/09/06 10:36:22;;;;;;;2.25;1.42;;;19.70;88.80;;;;;;5247687;28;20589;-69
2021/09/06 10:39:07;;;;;;;2.65;1.20;;;19.60;87.00;;;;;;5248681;28;20193;-71
2021/09/06 10:41:45;;;;;;;2.00;1.30;;;19.60;88.80;;;;;;5248693;28;20671;-66
2021/09/06 10:44:18;;;;;;;4.65;1.20;;;19.60;89.10;;;;;;5248959;28;20228;-69
2021/09/06 10:46:58;;;;;;;1.58;1.02;;;19.60;89.10;;;;;;5247528;28;20224;-69
2021/09/06 10:49:30;;;;;;;4.22;1.08;;;19.70;89.40;;;;;;5248564;28;20522;-67
2021/09/06 10:52:03;;;;;;;2.67;1.08;;;19.70;88.30;;;;;;5248575;28;20572;-67
2021/09/06 10:54:38;;;;;;;1.52;0.90;;;19.80;87.80;;;;;;5247473;28;20197;-68
2021/09/06 10:57:13;;;;;;;3.50;1.33;;;19.80;87.00;;;;;;5248517;28;20239;-68
2021/09/06 10:59:45;;;;;;;2.42;1.05;;;19.80;87.30;;;;;;5229248;28;20669;-66
2021/09/06 11:02:20;;;;;;;8.35;1.38;;;19.80;87.80;;;;;;5226692;28;20236;-67
2021/09/06 11:04:53;;;;;;;2.75;1.27;;;19.90;87.90;;;;;;5229592;28;20207;-68
2021/09/06 11:07:25;;;;;;;3.00;1.40;;;19.90;88.30;;;;;;5230368;28;20236;-67
2021/09/06 11:10:10;;;;;;;2.13;1.20;;;19.90;87.60;;;;;;5230721;28;20213;-66
2021/09/06 11:13:13;;;;;;;2.58;1.30;;;19.90;87.40;;;;;;5231001;28;20248;-58
2021/09/06 11:15:46;;;;;;;3.33;1.30;;;19.80;87.90;;;;;;5262335;28;20213;-59
2021/09/06 11:18:18;;;;;;;3.70;1.52;;;19.90;87.40;;;;;;5231746;28;20261;-57
2021/09/06 11:20:52;;;;;;;1.63;1.10;;;19.90;86.80;;;;;;5213991;28;20518;-58
2021/09/06 11:23:53;;;;;;;2.17;1.30;;;20.00;87.70;;;;;;5230225;28;20232;-60
2021/09/06 11:26:28;;;;;;;3.22;1.30;;;19.90;84.70;;;;;;5231800;28;20609;-61
2021/09/06 11:29:02;;;;;;;1.80;1.17;;;19.90;88.20;;;;;;5230992;28;20201;-60
2021/09/06 11:31:37;;;;;;;2.40;1.50;;;19.80;86.40;;;;;;5231407;28;20631;-60
2021/09/06 11:34:10;;;;;;;2.10;1.05;;;19.80;87.40;;;;;;5246346;28;20263;-59
2021/09/06 11:36:45;;;;;;;3.63;1.25;;;19.80;87.80;;;;;;5231335;28;20205;-57
2021/09/06 11:39:17;;;;;;;8.38;1.50;;;19.80;88.00;;;;;;5229788;28;20239;-56
2021/09/06 11:41:49;;;;;;;2.95;1.48;;;19.90;87.80;;;;;;5230095;28;20217;-65
2021/09/06 11:44:22;;;;;;;3.15;1.33;;;20.00;86.30;;;;;;5231024;28;20233;-58
2021/09/06 11:46:54;;;;;;;3.33;1.45;;;20.10;86.50;;;;;;5230888;28;20619;-62
2021/09/06 11:49:26;;;;;;;4.38;1.55;;;20.20;86.90;;;;;;5230872;28;20226;-61
2021/09/06 11:52:09;;;;;;;2.88;1.27;;;20.30;86.80;;;;;;5230730;28;20539;-59
2021/09/06 11:54:43;;;;;;;1.98;1.13;;;20.40;86.20;;;;;;5229398;28;20212;-61
2021/09/06 11:57:26;;;;;;;3.15;1.10;;;20.40;86.50;;;;;;5230906;28;20223;-57
2021/09/06 11:59:59;;;;;;;2.08;1.17;;;20.50;85.80;;;;;;5230489;28;20244;-58
2021/09/06 12:02:33;;;;;;;4.72;1.23;;;20.60;84.90;;;;;;5230242;28;20197;-54
2021/09/06 12:05:08;;;;;;;2.60;1.33;;;20.70;85.30;;;;;;5227842;28;20192;-55
2021/09/06 12:07:52;;;;;;;2.67;1.45;;;20.80;85.30;;;;;;5223425;28;20228;-52
2021/09/06 12:10:31;;;;;;;1.83;1.20;;;20.90;84.30;;;;;;5217477;28;20205;-58
2021/09/06 12:13:17;;;;;;;2.67;1.33;;;21.00;83.20;;;;;;5226895;28;20351;-60
2021/09/06 12:15:59;;;;;;;2.70;1.27;;;20.80;83.80;;;;;;5246471;28;20307;-57
2021/09/06 12:18:44;;;;;;;2.58;1.30;;;20.70;84.20;;;;;;5237478;28;20254;-57
2021/09/06 12:21:18;;;;;;;2.78;1.00;;;20.60;83.80;;;;;;5237763;28;20209;-56
2021/09/06 12:24:03;;;;;;;2.60;0.95;;;20.40;84.00;;;;;;5237071;28;20230;-53
2021/09/06 12:26:43;;;;;;;2.58;1.30;;;20.20;83.00;;;;;;5229557;28;20288;-59
2021/09/06 12:29:32;;;;;;;2.38;1.35;;;20.20;83.10;;;;;;5243028;28;20223;-60
2021/09/06 12:32:05;;;;;;;2.67;1.20;;;20.20;84.00;;;;;;5233895;28;20193;-53
2021/09/06 12:34:40;;;;;;;2.65;1.23;;;20.30;84.10;;;;;;5242835;28;20237;-59
2021/09/06 12:37:14;;;;;;;1.67;1.10;;;20.40;84.40;;;;;;5242084;28;20203;-56
2021/09/06 12:39:48;;;;;;;1.45;0.98;;;20.50;82.90;;;;;;5233811;28;20656;-57
2021/09/06 12:42:20;;;;;;;3.05;1.20;;;20.50;82.70;;;;;;5243804;28;20649;-57
2021/09/06 12:44:54;;;;;;;2.17;1.10;;;20.60;83.00;;;;;;5238299;28;20714;-56
2021/09/06 12:47:28;;;;;;;1.60;1.10;;;20.60;82.70;;;;;;5235803;28;20185;-57
2021/09/06 12:50:02;;;;;;;2.17;1.13;;;20.70;82.00;;;;;;5230865;28;20236;-58
2021/09/06 12:52:35;;;;;;;2.28;1.13;;;20.70;81.50;;;;;;5231985;28;20209;-60
2021/09/06 12:55:08;;;;;;;6.00;2.70;;;20.80;81.00;;;;;;5238085;28;20260;-58
2021/09/06 12:57:40;;;;;;;3.92;1.45;;;20.80;80.90;;;;;;5244341;28;20196;-58
2021/09/06 13:00:12;;;;;;;3.20;1.55;;;20.80;80.80;;;;;;5215846;28;20225;-56
2021/09/06 13:02:47;;;;;;;2.95;1.48;;;20.70;81.70;;;;;;5240949;28;20198;-56
2021/09/06 13:05:21;;;;;;;2.50;1.33;;;20.60;81.50;;;;;;5239831;28;20531;-57
2021/09/06 13:07:53;;;;;;;3.15;1.55;;;20.50;82.60;;;;;;5229807;28;20225;-59
2021/09/06 13:10:30;;;;;;;2.17;1.40;;;20.40;83.20;;;;;;5219413;28;20201;-58
2021/09/06 13:13:07;;;;;;;2.13;1.20;;;20.30;82.70;;;;;;5239320;28;20208;-48
2021/09/06 13:15:40;;;;;;;1.77;1.10;;;20.20;83.10;;;;;;5232444;28;20193;-54
2021/09/06 13:18:14;;;;;;;4.30;1.48;;;20.00;82.90;;;;;;5208262;28;20220;-50
2021/09/06 13:20:46;;;;;;;4.22;1.00;;;19.90;83.00;;;;;;5218378;28;20227;-58
2021/09/06 13:23:18;;;;;;;1.20;1.00;;;19.80;83.00;;;;;;5238737;28;20255;-60
2021/09/06 13:25:50;;;;;;;3.78;1.38;;;19.90;83.40;;;;;;5228076;28;20524;-52